sensor_id;sensor_type;location;lat;lon;timestamp;P1;durP1;ratioP1;P2;durP2;ratioP2
71106;SDS011;58763;47.982;11.516;2023-05-16T00:00:08;6.53;;;4.55;;
71106;SDS011;58763;47.982;11.516;2023-05-16T00:02:34;7.75;;;5.30;;
71106;SDS011;58763;47.982;11.516;2023-05-16T00:05:02;6.13;;;3.92;;
71106;SDS011;58763;47.982;11.516;2023-05-16T00:07:29;5.88;;;4.22;;
71106;SDS011;58763;47.982;11.516;2023-05-16T00:09:54;6.82;;;4.70;;
71106;SDS011;58763;47.982;11.516;2023-05-16T00:12:20;7.28;;;4.70;;
71106;SDS011;58763;47.982;11.516;2023-05-16T00:14:47;7.90;;;4.90;;
71106;SDS011;58763;47.982;11.516;2023-05-16T00:17:13;7.13;;;4.80;;
71106;SDS011;58763;47.982;11.516;2023-05-16T00:19:38;7.55;;;5.10;;
71106;SDS011;58763;47.982;11.516;2023-05-16T00:22:06;7.13;;;4.70;;
71106;SDS011;58763;47.982;11.516;2023-05-16T00:24:32;7.00;;;4.65;;
71106;SDS011;58763;47.982;11.516;2023-05-16T00:26:58;6.55;;;4.70;;
71106;SDS011;58763;47.982;11.516;2023-05-16T00:29:23;7.05;;;4.82;;
71106;SDS011;58763;47.982;11.516;2023-05-16T00:31:52;7.60;;;4.65;;
71106;SDS011;58763;47.982;11.516;2023-05-16T00:34:17;6.78;;;4.65;;
71106;SDS011;58763;47.982;11.516;2023-05-16T00:36:48;6.95;;;5.05;;
71106;SDS011;58763;47.982;11.516;2023-05-16T00:39:14;6.78;;;4.55;;
71106;SDS011;58763;47.982;11.516;2023-05-16T00:41:41;6.78;;;4.45;;
71106;SDS011;58763;47.982;11.516;2023-05-16T00:44:07;7.32;;;4.22;;
71106;SDS011;58763;47.982;11.516;2023-05-16T00:46:32;7.32;;;4.28;;
71106;SDS011;58763;47.982;11.516;2023-05-16T00:49:00;7.75;;;5.10;;
71106;SDS011;58763;47.982;11.516;2023-05-16T00:51:26;8.73;;;5.30;;
71106;SDS011;58763;47.982;11.516;2023-05-16T00:53:52;7.85;;;5.32;;
71106;SDS011;58763;47.982;11.516;2023-05-16T00:56:19;8.25;;;5.75;;
71106;SDS011;58763;47.982;11.516;2023-05-16T00:58:46;9.10;;;5.75;;
71106;SDS011;58763;47.982;11.516;2023-05-16T01:01:11;9.73;;;5.38;;
71106;SDS011;58763;47.982;11.516;2023-05-16T01:03:38;9.18;;;5.63;;
71106;SDS011;58763;47.982;11.516;2023-05-16T01:06:05;9.68;;;5.82;;
71106;SDS011;58763;47.982;11.516;2023-05-16T01:08:30;7.97;;;5.60;;
71106;SDS011;58763;47.982;11.516;2023-05-16T01:11:13;7.90;;;5.07;;
71106;SDS011;58763;47.982;11.516;2023-05-16T01:16:33;8.80;;;5.38;;
71106;SDS011;58763;47.982;11.516;2023-05-16T01:24:33;7.03;;;4.93;;
71106;SDS011;58763;47.982;11.516;2023-05-16T01:27:08;7.65;;;4.82;;
71106;SDS011;58763;47.982;11.516;2023-05-16T01:29:36;6.95;;;4.70;;
71106;SDS011;58763;47.982;11.516;2023-05-16T01:32:01;6.90;;;4.35;;
71106;SDS011;58763;47.982;11.516;2023-05-16T01:34:27;6.75;;;4.20;;
71106;SDS011;58763;47.982;11.516;2023-05-16T01:37:05;7.85;;;4.18;;
71106;SDS011;58763;47.982;11.516;2023-05-16T01:39:43;6.53;;;3.90;;
71106;SDS011;58763;47.982;11.516;2023-05-16T01:42:12;6.32;;;4.22;;
71106;SDS011;58763;47.982;11.516;2023-05-16T01:44:49;6.57;;;4.10;;
71106;SDS011;58763;47.982;11.516;2023-05-16T01:47:21;5.97;;;3.67;;
71106;SDS011;58763;47.982;11.516;2023-05-16T01:55:20;5.80;;;3.85;;
71106;SDS011;58763;47.982;11.516;2023-05-16T01:57:54;6.18;;;4.00;;
71106;SDS011;58763;47.982;11.516;2023-05-16T02:00:23;5.55;;;3.60;;
71106;SDS011;58763;47.982;11.516;2023-05-16T02:02:49;6.05;;;3.72;;
71106;SDS011;58763;47.982;11.516;2023-05-16T02:05:16;5.80;;;3.72;;
71106;SDS011;58763;47.982;11.516;2023-05-16T02:07:42;6.80;;;3.92;;
71106;SDS011;58763;47.982;11.516;2023-05-16T02:10:08;7.10;;;4.10;;
71106;SDS011;58763;47.982;11.516;2023-05-16T02:12:35;8.88;;;3.65;;
71106;SDS011;58763;47.982;11.516;2023-05-16T02:15:01;6.78;;;4.00;;
71106;SDS011;58763;47.982;11.516;2023-05-16T02:17:27;5.93;;;3.72;;
71106;SDS011;58763;47.982;11.516;2023-05-16T02:19:53;7.65;;;4.10;;
71106;SDS011;58763;47.982;11.516;2023-05-16T02:22:19;7.85;;;4.00;;
71106;SDS011;58763;47.982;11.516;2023-05-16T02:24:45;5.85;;;3.90;;
71106;SDS011;58763;47.982;11.516;2023-05-16T02:27:10;5.88;;;4.00;;
71106;SDS011;58763;47.982;11.516;2023-05-16T02:29:36;6.00;;;4.00;;
71106;SDS011;58763;47.982;11.516;2023-05-16T02:32:03;7.72;;;3.95;;
71106;SDS011;58763;47.982;11.516;2023-05-16T02:34:29;5.85;;;3.70;;
71106;SDS011;58763;47.982;11.516;2023-05-16T02:36:54;6.28;;;4.07;;
71106;SDS011;58763;47.982;11.516;2023-05-16T02:39:21;5.63;;;3.75;;
71106;SDS011;58763;47.982;11.516;2023-05-16T02:41:47;7.32;;;4.07;;
71106;SDS011;58763;47.982;11.516;2023-05-16T02:44:12;7.22;;;4.10;;
71106;SDS011;58763;47.982;11.516;2023-05-16T02:46:38;6.22;;;4.07;;
71106;SDS011;58763;47.982;11.516;2023-05-16T02:49:04;5.82;;;3.80;;
71106;SDS011;58763;47.982;11.516;2023-05-16T02:51:30;6.95;;;4.25;;
71106;SDS011;58763;47.982;11.516;2023-05-16T02:53:56;5.88;;;4.03;;
71106;SDS011;58763;47.982;11.516;2023-05-16T02:56:24;7.40;;;4.55;;
71106;SDS011;58763;47.982;11.516;2023-05-16T02:58:52;7.25;;;4.68;;
71106;SDS011;58763;47.982;11.516;2023-05-16T03:01:19;6.47;;;4.22;;
71106;SDS011;58763;47.982;11.516;2023-05-16T03:03:46;6.35;;;4.25;;
71106;SDS011;58763;47.982;11.516;2023-05-16T03:06:12;6.63;;;4.32;;
71106;SDS011;58763;47.982;11.516;2023-05-16T03:08:38;7.78;;;4.55;;
71106;SDS011;58763;47.982;11.516;2023-05-16T03:11:04;6.60;;;4.05;;
71106;SDS011;58763;47.982;11.516;2023-05-16T03:13:30;8.63;;;4.35;;
71106;SDS011;58763;47.982;11.516;2023-05-16T03:15:56;7.55;;;4.78;;
71106;SDS011;58763;47.982;11.516;2023-05-16T03:18:22;7.90;;;4.55;;
71106;SDS011;58763;47.982;11.516;2023-05-16T03:20:49;7.10;;;4.70;;
71106;SDS011;58763;47.982;11.516;2023-05-16T03:23:18;7.32;;;4.65;;
71106;SDS011;58763;47.982;11.516;2023-05-16T03:25:44;8.63;;;5.07;;
71106;SDS011;58763;47.982;11.516;2023-05-16T03:28:11;6.28;;;4.30;;
71106;SDS011;58763;47.982;11.516;2023-05-16T03:30:38;7.38;;;5.00;;
71106;SDS011;58763;47.982;11.516;2023-05-16T03:33:05;7.78;;;5.13;;
71106;SDS011;58763;47.982;11.516;2023-05-16T03:35:31;9.90;;;4.47;;
71106;SDS011;58763;47.982;11.516;2023-05-16T03:38:01;8.30;;;5.03;;
71106;SDS011;58763;47.982;11.516;2023-05-16T03:40:27;7.22;;;4.60;;
71106;SDS011;58763;47.982;11.516;2023-05-16T03:42:54;7.30;;;4.32;;
71106;SDS011;58763;47.982;11.516;2023-05-16T03:45:19;7.22;;;4.60;;
71106;SDS011;58763;47.982;11.516;2023-05-16T03:47:45;8.13;;;4.65;;
71106;SDS011;58763;47.982;11.516;2023-05-16T03:50:14;8.65;;;5.18;;
71106;SDS011;58763;47.982;11.516;2023-05-16T03:52:40;6.65;;;4.57;;
71106;SDS011;58763;47.982;11.516;2023-05-16T03:55:06;8.15;;;4.38;;
71106;SDS011;58763;47.982;11.516;2023-05-16T03:57:34;9.85;;;4.78;;
71106;SDS011;58763;47.982;11.516;2023-05-16T04:00:03;7.82;;;4.75;;
71106;SDS011;58763;47.982;11.516;2023-05-16T04:02:32;7.18;;;4.70;;
71106;SDS011;58763;47.982;11.516;2023-05-16T04:04:59;8.15;;;4.53;;
71106;SDS011;58763;47.982;11.516;2023-05-16T04:07:24;7.10;;;5.10;;
71106;SDS011;58763;47.982;11.516;2023-05-16T04:09:51;8.63;;;4.72;;
71106;SDS011;58763;47.982;11.516;2023-05-16T04:12:19;8.55;;;4.72;;
71106;SDS011;58763;47.982;11.516;2023-05-16T04:14:45;7.68;;;5.05;;
71106;SDS011;58763;47.982;11.516;2023-05-16T04:17:11;7.47;;;5.13;;
71106;SDS011;58763;47.982;11.516;2023-05-16T04:19:37;7.05;;;4.90;;
71106;SDS011;58763;47.982;11.516;2023-05-16T04:22:03;6.95;;;4.50;;
71106;SDS011;58763;47.982;11.516;2023-05-16T04:24:29;8.23;;;4.78;;
71106;SDS011;58763;47.982;11.516;2023-05-16T04:26:55;8.40;;;4.78;;
71106;SDS011;58763;47.982;11.516;2023-05-16T04:29:21;7.10;;;4.68;;
71106;SDS011;58763;47.982;11.516;2023-05-16T04:31:47;8.57;;;4.97;;
71106;SDS011;58763;47.982;11.516;2023-05-16T04:34:13;9.20;;;4.82;;
71106;SDS011;58763;47.982;11.516;2023-05-16T04:36:41;8.25;;;4.70;;
71106;SDS011;58763;47.982;11.516;2023-05-16T04:39:06;8.20;;;5.35;;
71106;SDS011;58763;47.982;11.516;2023-05-16T04:41:34;8.45;;;5.28;;
71106;SDS011;58763;47.982;11.516;2023-05-16T04:44:01;8.93;;;4.80;;
71106;SDS011;58763;47.982;11.516;2023-05-16T04:46:28;7.78;;;5.22;;
71106;SDS011;58763;47.982;11.516;2023-05-16T04:48:54;7.53;;;5.18;;
71106;SDS011;58763;47.982;11.516;2023-05-16T04:51:20;10.48;;;6.85;;
71106;SDS011;58763;47.982;11.516;2023-05-16T04:53:47;28.75;;;14.82;;
71106;SDS011;58763;47.982;11.516;2023-05-16T04:56:13;11.70;;;7.63;;
71106;SDS011;58763;47.982;11.516;2023-05-16T04:58:39;9.23;;;5.70;;
71106;SDS011;58763;47.982;11.516;2023-05-16T05:01:05;8.68;;;5.75;;
71106;SDS011;58763;47.982;11.516;2023-05-16T05:03:30;9.70;;;5.40;;
71106;SDS011;58763;47.982;11.516;2023-05-16T05:05:56;8.70;;;6.05;;
71106;SDS011;58763;47.982;11.516;2023-05-16T05:08:22;8.65;;;6.00;;
71106;SDS011;58763;47.982;11.516;2023-05-16T05:10:48;8.95;;;6.18;;
71106;SDS011;58763;47.982;11.516;2023-05-16T05:13:14;9.30;;;5.65;;
71106;SDS011;58763;47.982;11.516;2023-05-16T05:15:40;7.95;;;5.70;;
71106;SDS011;58763;47.982;11.516;2023-05-16T05:18:05;7.68;;;4.90;;
71106;SDS011;58763;47.982;11.516;2023-05-16T05:20:31;8.95;;;5.90;;
71106;SDS011;58763;47.982;11.516;2023-05-16T05:22:57;10.65;;;6.43;;
71106;SDS011;58763;47.982;11.516;2023-05-16T05:25:23;8.55;;;5.75;;
71106;SDS011;58763;47.982;11.516;2023-05-16T05:27:49;10.25;;;6.07;;
71106;SDS011;58763;47.982;11.516;2023-05-16T05:30:18;8.27;;;5.63;;
71106;SDS011;58763;47.982;11.516;2023-05-16T05:32:44;9.40;;;5.40;;
71106;SDS011;58763;47.982;11.516;2023-05-16T05:35:09;8.82;;;5.80;;
71106;SDS011;58763;47.982;11.516;2023-05-16T05:37:35;9.27;;;5.55;;
71106;SDS011;58763;47.982;11.516;2023-05-16T05:40:01;11.20;;;6.65;;
71106;SDS011;58763;47.982;11.516;2023-05-16T05:42:27;9.57;;;6.60;;
71106;SDS011;58763;47.982;11.516;2023-05-16T05:44:53;10.13;;;6.25;;
71106;SDS011;58763;47.982;11.516;2023-05-16T05:47:19;11.23;;;6.82;;
71106;SDS011;58763;47.982;11.516;2023-05-16T05:49:46;9.55;;;6.45;;
71106;SDS011;58763;47.982;11.516;2023-05-16T05:52:12;10.80;;;7.10;;
71106;SDS011;58763;47.982;11.516;2023-05-16T05:54:40;10.50;;;6.88;;
71106;SDS011;58763;47.982;11.516;2023-05-16T05:57:07;9.25;;;5.93;;
71106;SDS011;58763;47.982;11.516;2023-05-16T05:59:33;10.35;;;6.38;;
71106;SDS011;58763;47.982;11.516;2023-05-16T06:02:00;12.15;;;7.13;;
71106;SDS011;58763;47.982;11.516;2023-05-16T06:04:26;10.63;;;6.40;;
71106;SDS011;58763;47.982;11.516;2023-05-16T06:06:52;11.10;;;7.20;;
71106;SDS011;58763;47.982;11.516;2023-05-16T06:09:17;11.43;;;7.05;;
71106;SDS011;58763;47.982;11.516;2023-05-16T06:11:47;13.27;;;8.20;;
71106;SDS011;58763;47.982;11.516;2023-05-16T06:14:13;11.60;;;7.80;;
71106;SDS011;58763;47.982;11.516;2023-05-16T06:16:40;13.23;;;8.73;;
71106;SDS011;58763;47.982;11.516;2023-05-16T06:19:06;13.13;;;8.60;;
71106;SDS011;58763;47.982;11.516;2023-05-16T06:21:33;13.57;;;8.88;;
71106;SDS011;58763;47.982;11.516;2023-05-16T06:23:59;14.93;;;8.32;;
71106;SDS011;58763;47.982;11.516;2023-05-16T06:26:24;13.43;;;8.52;;
71106;SDS011;58763;47.982;11.516;2023-05-16T06:28:51;14.20;;;8.98;;
71106;SDS011;58763;47.982;11.516;2023-05-16T06:31:16;14.43;;;9.10;;
71106;SDS011;58763;47.982;11.516;2023-05-16T06:33:43;14.15;;;9.25;;
71106;SDS011;58763;47.982;11.516;2023-05-16T06:36:10;14.93;;;9.48;;
71106;SDS011;58763;47.982;11.516;2023-05-16T06:38:37;15.70;;;9.82;;
71106;SDS011;58763;47.982;11.516;2023-05-16T06:41:05;17.38;;;9.98;;
71106;SDS011;58763;47.982;11.516;2023-05-16T06:43:32;15.15;;;9.68;;
71106;SDS011;58763;47.982;11.516;2023-05-16T06:45:58;15.18;;;9.82;;
71106;SDS011;58763;47.982;11.516;2023-05-16T06:48:23;14.55;;;9.23;;
71106;SDS011;58763;47.982;11.516;2023-05-16T06:50:49;16.00;;;9.70;;
71106;SDS011;58763;47.982;11.516;2023-05-16T06:53:18;15.23;;;9.43;;
71106;SDS011;58763;47.982;11.516;2023-05-16T06:55:45;17.30;;;9.80;;
71106;SDS011;58763;47.982;11.516;2023-05-16T06:58:11;14.95;;;9.73;;
71106;SDS011;58763;47.982;11.516;2023-05-16T07:00:39;17.08;;;9.85;;
71106;SDS011;58763;47.982;11.516;2023-05-16T07:03:07;15.63;;;10.32;;
71106;SDS011;58763;47.982;11.516;2023-05-16T07:05:32;14.80;;;9.52;;
71106;SDS011;58763;47.982;11.516;2023-05-16T07:07:58;13.40;;;9.20;;
71106;SDS011;58763;47.982;11.516;2023-05-16T07:10:24;17.17;;;10.80;;
71106;SDS011;58763;47.982;11.516;2023-05-16T07:12:52;14.38;;;9.60;;
71106;SDS011;58763;47.982;11.516;2023-05-16T07:15:18;15.00;;;10.40;;
71106;SDS011;58763;47.982;11.516;2023-05-16T07:17:45;14.35;;;9.77;;
71106;SDS011;58763;47.982;11.516;2023-05-16T07:20:10;14.48;;;9.70;;
71106;SDS011;58763;47.982;11.516;2023-05-16T07:22:39;13.52;;;9.52;;
71106;SDS011;58763;47.982;11.516;2023-05-16T07:25:05;14.48;;;10.27;;
71106;SDS011;58763;47.982;11.516;2023-05-16T07:27:40;14.52;;;10.02;;
71106;SDS011;58763;47.982;11.516;2023-05-16T07:32:34;14.60;;;10.07;;
71106;SDS011;58763;47.982;11.516;2023-05-16T07:35:01;16.60;;;11.15;;
71106;SDS011;58763;47.982;11.516;2023-05-16T07:37:27;16.08;;;10.57;;
71106;SDS011;58763;47.982;11.516;2023-05-16T07:39:53;14.38;;;9.63;;
71106;SDS011;58763;47.982;11.516;2023-05-16T07:42:19;17.05;;;10.60;;
71106;SDS011;58763;47.982;11.516;2023-05-16T07:44:47;14.95;;;10.43;;
71106;SDS011;58763;47.982;11.516;2023-05-16T07:47:15;16.42;;;11.07;;
71106;SDS011;58763;47.982;11.516;2023-05-16T07:49:41;15.57;;;9.80;;
71106;SDS011;58763;47.982;11.516;2023-05-16T07:52:07;14.60;;;10.02;;
71106;SDS011;58763;47.982;11.516;2023-05-16T07:54:33;15.48;;;10.38;;
71106;SDS011;58763;47.982;11.516;2023-05-16T07:57:00;15.60;;;9.82;;
71106;SDS011;58763;47.982;11.516;2023-05-16T07:59:27;14.63;;;10.13;;
71106;SDS011;58763;47.982;11.516;2023-05-16T08:01:53;13.82;;;10.02;;
71106;SDS011;58763;47.982;11.516;2023-05-16T08:04:21;15.18;;;10.15;;
71106;SDS011;58763;47.982;11.516;2023-05-16T08:06:46;14.85;;;9.77;;
71106;SDS011;58763;47.982;11.516;2023-05-16T08:09:13;16.75;;;10.48;;
71106;SDS011;58763;47.982;11.516;2023-05-16T08:11:40;13.52;;;9.75;;
71106;SDS011;58763;47.982;11.516;2023-05-16T08:14:09;15.07;;;10.50;;
71106;SDS011;58763;47.982;11.516;2023-05-16T08:16:36;15.10;;;10.55;;
71106;SDS011;58763;47.982;11.516;2023-05-16T08:19:02;16.55;;;11.13;;
71106;SDS011;58763;47.982;11.516;2023-05-16T08:21:27;15.10;;;11.13;;
71106;SDS011;58763;47.982;11.516;2023-05-16T08:23:58;14.20;;;10.43;;
71106;SDS011;58763;47.982;11.516;2023-05-16T08:26:24;15.07;;;10.07;;
71106;SDS011;58763;47.982;11.516;2023-05-16T08:28:51;15.88;;;11.02;;
71106;SDS011;58763;47.982;11.516;2023-05-16T08:31:18;14.48;;;10.35;;
71106;SDS011;58763;47.982;11.516;2023-05-16T08:33:43;15.85;;;11.63;;
71106;SDS011;58763;47.982;11.516;2023-05-16T08:36:09;17.40;;;11.43;;
71106;SDS011;58763;47.982;11.516;2023-05-16T08:38:35;15.80;;;10.55;;
71106;SDS011;58763;47.982;11.516;2023-05-16T08:41:01;17.70;;;10.57;;
71106;SDS011;58763;47.982;11.516;2023-05-16T08:43:27;14.88;;;9.65;;
71106;SDS011;58763;47.982;11.516;2023-05-16T08:45:53;17.95;;;11.27;;
71106;SDS011;58763;47.982;11.516;2023-05-16T08:48:21;17.08;;;11.10;;
71106;SDS011;58763;47.982;11.516;2023-05-16T08:50:48;14.18;;;10.15;;
71106;SDS011;58763;47.982;11.516;2023-05-16T08:53:16;17.52;;;10.60;;
71106;SDS011;58763;47.982;11.516;2023-05-16T08:55:47;15.05;;;10.40;;
71106;SDS011;58763;47.982;11.516;2023-05-16T08:58:15;16.23;;;11.30;;
71106;SDS011;58763;47.982;11.516;2023-05-16T09:00:42;15.70;;;10.68;;
71106;SDS011;58763;47.982;11.516;2023-05-16T09:03:10;16.33;;;11.20;;
71106;SDS011;58763;47.982;11.516;2023-05-16T09:05:37;16.83;;;11.98;;
71106;SDS011;58763;47.982;11.516;2023-05-16T09:08:03;16.88;;;11.93;;
71106;SDS011;58763;47.982;11.516;2023-05-16T09:10:29;19.25;;;11.98;;
71106;SDS011;58763;47.982;11.516;2023-05-16T09:12:55;18.05;;;12.50;;
71106;SDS011;58763;47.982;11.516;2023-05-16T09:15:21;17.08;;;12.20;;
71106;SDS011;58763;47.982;11.516;2023-05-16T09:17:47;17.42;;;11.48;;
71106;SDS011;58763;47.982;11.516;2023-05-16T09:20:17;18.27;;;12.35;;
71106;SDS011;58763;47.982;11.516;2023-05-16T09:22:53;18.45;;;12.68;;
71106;SDS011;58763;47.982;11.516;2023-05-16T09:25:27;18.40;;;12.43;;
71106;SDS011;58763;47.982;11.516;2023-05-16T09:27:59;19.23;;;12.10;;
71106;SDS011;58763;47.982;11.516;2023-05-16T09:30:29;17.33;;;12.00;;
71106;SDS011;58763;47.982;11.516;2023-05-16T09:32:59;19.27;;;13.07;;
71106;SDS011;58763;47.982;11.516;2023-05-16T09:35:25;18.17;;;12.40;;
71106;SDS011;58763;47.982;11.516;2023-05-16T09:37:51;18.55;;;13.05;;
71106;SDS011;58763;47.982;11.516;2023-05-16T09:40:21;17.83;;;12.95;;
71106;SDS011;58763;47.982;11.516;2023-05-16T09:42:51;18.58;;;12.73;;
71106;SDS011;58763;47.982;11.516;2023-05-16T09:45:29;18.15;;;13.02;;
71106;SDS011;58763;47.982;11.516;2023-05-16T09:48:00;16.85;;;11.32;;
71106;SDS011;58763;47.982;11.516;2023-05-16T09:52:53;16.60;;;11.57;;
71106;SDS011;58763;47.982;11.516;2023-05-16T09:55:19;16.95;;;10.75;;
71106;SDS011;58763;47.982;11.516;2023-05-16T09:57:44;17.70;;;11.80;;
71106;SDS011;58763;47.982;11.516;2023-05-16T10:00:13;16.60;;;11.68;;
71106;SDS011;58763;47.982;11.516;2023-05-16T10:02:39;17.17;;;12.07;;
71106;SDS011;58763;47.982;11.516;2023-05-16T10:05:06;16.33;;;11.93;;
71106;SDS011;58763;47.982;11.516;2023-05-16T10:07:34;15.85;;;11.77;;
71106;SDS011;58763;47.982;11.516;2023-05-16T10:10:05;16.02;;;11.70;;
71106;SDS011;58763;47.982;11.516;2023-05-16T10:12:35;17.52;;;12.13;;
71106;SDS011;58763;47.982;11.516;2023-05-16T10:15:03;17.90;;;12.02;;
71106;SDS011;58763;47.982;11.516;2023-05-16T10:17:31;15.45;;;11.90;;
71106;SDS011;58763;47.982;11.516;2023-05-16T10:20:00;16.75;;;12.02;;
71106;SDS011;58763;47.982;11.516;2023-05-16T10:22:31;17.55;;;11.98;;
71106;SDS011;58763;47.982;11.516;2023-05-16T10:25:45;17.15;;;12.02;;
71106;SDS011;58763;47.982;11.516;2023-05-16T10:27:52;15.43;;;11.75;;
71106;SDS011;58763;47.982;11.516;2023-05-16T10:30:19;15.98;;;12.38;;
71106;SDS011;58763;47.982;11.516;2023-05-16T10:32:45;18.55;;;11.45;;
71106;SDS011;58763;47.982;11.516;2023-05-16T10:35:13;16.92;;;11.55;;
71106;SDS011;58763;47.982;11.516;2023-05-16T10:37:40;15.60;;;11.88;;
71106;SDS011;58763;47.982;11.516;2023-05-16T10:40:09;17.10;;;11.65;;
71106;SDS011;58763;47.982;11.516;2023-05-16T10:42:35;16.20;;;11.98;;
71106;SDS011;58763;47.982;11.516;2023-05-16T10:45:08;18.88;;;12.38;;
71106;SDS011;58763;47.982;11.516;2023-05-16T10:47:49;16.95;;;12.02;;
71106;SDS011;58763;47.982;11.516;2023-05-16T10:50:29;18.88;;;12.30;;
71106;SDS011;58763;47.982;11.516;2023-05-16T10:53:20;16.05;;;12.27;;
71106;SDS011;58763;47.982;11.516;2023-05-16T10:55:48;16.35;;;12.10;;
71106;SDS011;58763;47.982;11.516;2023-05-16T10:58:22;17.13;;;12.02;;
71106;SDS011;58763;47.982;11.516;2023-05-16T11:00:48;17.92;;;13.18;;
71106;SDS011;58763;47.982;11.516;2023-05-16T11:03:21;17.02;;;11.90;;
71106;SDS011;58763;47.982;11.516;2023-05-16T11:05:52;15.98;;;12.35;;
71106;SDS011;58763;47.982;11.516;2023-05-16T11:08:23;16.33;;;12.18;;
71106;SDS011;58763;47.982;11.516;2023-05-16T11:11:17;16.80;;;12.38;;
71106;SDS011;58763;47.982;11.516;2023-05-16T11:13:56;17.90;;;13.10;;
71106;SDS011;58763;47.982;11.516;2023-05-16T11:16:29;17.63;;;13.73;;
71106;SDS011;58763;47.982;11.516;2023-05-16T11:19:03;18.50;;;13.68;;
71106;SDS011;58763;47.982;11.516;2023-05-16T11:24:32;19.30;;;13.90;;
71106;SDS011;58763;47.982;11.516;2023-05-16T11:26:59;17.85;;;14.43;;
71106;SDS011;58763;47.982;11.516;2023-05-16T11:29:27;20.13;;;13.88;;
71106;SDS011;58763;47.982;11.516;2023-05-16T11:31:53;19.23;;;14.18;;
71106;SDS011;58763;47.982;11.516;2023-05-16T11:34:19;20.08;;;14.20;;
71106;SDS011;58763;47.982;11.516;2023-05-16T11:36:45;18.52;;;13.93;;
71106;SDS011;58763;47.982;11.516;2023-05-16T11:39:12;19.02;;;14.38;;
71106;SDS011;58763;47.982;11.516;2023-05-16T11:41:38;19.88;;;13.77;;
71106;SDS011;58763;47.982;11.516;2023-05-16T11:44:05;19.65;;;13.75;;
71106;SDS011;58763;47.982;11.516;2023-05-16T11:46:32;18.52;;;13.20;;
71106;SDS011;58763;47.982;11.516;2023-05-16T11:48:58;17.20;;;13.23;;
71106;SDS011;58763;47.982;11.516;2023-05-16T11:51:23;19.05;;;13.73;;
71106;SDS011;58763;47.982;11.516;2023-05-16T11:53:49;17.75;;;13.00;;
71106;SDS011;58763;47.982;11.516;2023-05-16T11:56:14;17.15;;;13.15;;
71106;SDS011;58763;47.982;11.516;2023-05-16T11:58:41;17.92;;;13.68;;
71106;SDS011;58763;47.982;11.516;2023-05-16T12:01:07;17.27;;;13.35;;
71106;SDS011;58763;47.982;11.516;2023-05-16T12:03:34;17.50;;;12.73;;
71106;SDS011;58763;47.982;11.516;2023-05-16T12:06:01;17.55;;;12.82;;
71106;SDS011;58763;47.982;11.516;2023-05-16T12:08:28;18.88;;;13.48;;
71106;SDS011;58763;47.982;11.516;2023-05-16T12:10:53;18.90;;;12.50;;
71106;SDS011;58763;47.982;11.516;2023-05-16T12:13:20;17.95;;;13.20;;
71106;SDS011;58763;47.982;11.516;2023-05-16T12:15:49;17.00;;;12.75;;
71106;SDS011;58763;47.982;11.516;2023-05-16T12:18:17;17.10;;;11.98;;
71106;SDS011;58763;47.982;11.516;2023-05-16T12:20:43;14.25;;;11.27;;
71106;SDS011;58763;47.982;11.516;2023-05-16T12:23:10;15.88;;;12.13;;
71106;SDS011;58763;47.982;11.516;2023-05-16T12:25:39;15.73;;;12.23;;
71106;SDS011;58763;47.982;11.516;2023-05-16T12:28:11;16.83;;;11.75;;
71106;SDS011;58763;47.982;11.516;2023-05-16T12:30:41;15.48;;;11.25;;
71106;SDS011;58763;47.982;11.516;2023-05-16T12:33:09;12.70;;;9.98;;
71106;SDS011;58763;47.982;11.516;2023-05-16T12:35:37;13.40;;;9.93;;
71106;SDS011;58763;47.982;11.516;2023-05-16T12:38:05;15.23;;;10.40;;
71106;SDS011;58763;47.982;11.516;2023-05-16T12:40:32;13.77;;;10.48;;
71106;SDS011;58763;47.982;11.516;2023-05-16T12:42:59;13.50;;;10.38;;
71106;SDS011;58763;47.982;11.516;2023-05-16T12:45:27;15.32;;;11.13;;
71106;SDS011;58763;47.982;11.516;2023-05-16T12:47:53;15.35;;;11.32;;
71106;SDS011;58763;47.982;11.516;2023-05-16T12:50:20;14.23;;;10.90;;
71106;SDS011;58763;47.982;11.516;2023-05-16T12:52:47;15.48;;;12.23;;
71106;SDS011;58763;47.982;11.516;2023-05-16T12:55:15;15.73;;;11.40;;
71106;SDS011;58763;47.982;11.516;2023-05-16T12:57:42;15.40;;;11.57;;
71106;SDS011;58763;47.982;11.516;2023-05-16T13:00:12;17.30;;;12.43;;
71106;SDS011;58763;47.982;11.516;2023-05-16T13:02:39;16.52;;;12.00;;
71106;SDS011;58763;47.982;11.516;2023-05-16T13:05:05;15.15;;;11.32;;
71106;SDS011;58763;47.982;11.516;2023-05-16T13:07:32;16.35;;;10.75;;
71106;SDS011;58763;47.982;11.516;2023-05-16T13:09:59;16.95;;;11.30;;
71106;SDS011;58763;47.982;11.516;2023-05-16T13:12:25;14.55;;;10.60;;
71106;SDS011;58763;47.982;11.516;2023-05-16T13:14:51;13.98;;;10.77;;
71106;SDS011;58763;47.982;11.516;2023-05-16T13:17:18;15.00;;;10.95;;
71106;SDS011;58763;47.982;11.516;2023-05-16T13:19:44;16.45;;;10.70;;
71106;SDS011;58763;47.982;11.516;2023-05-16T13:22:09;14.43;;;10.77;;
71106;SDS011;58763;47.982;11.516;2023-05-16T13:24:37;13.65;;;10.48;;
71106;SDS011;58763;47.982;11.516;2023-05-16T13:27:03;14.07;;;10.70;;
71106;SDS011;58763;47.982;11.516;2023-05-16T13:29:29;15.00;;;11.02;;
71106;SDS011;58763;47.982;11.516;2023-05-16T13:31:56;14.40;;;10.75;;
71106;SDS011;58763;47.982;11.516;2023-05-16T13:34:22;15.13;;;11.02;;
71106;SDS011;58763;47.982;11.516;2023-05-16T13:36:48;13.80;;;10.13;;
71106;SDS011;58763;47.982;11.516;2023-05-16T13:39:14;15.50;;;10.32;;
71106;SDS011;58763;47.982;11.516;2023-05-16T13:41:39;15.55;;;10.60;;
71106;SDS011;58763;47.982;11.516;2023-05-16T13:44:06;15.30;;;11.25;;
71106;SDS011;58763;47.982;11.516;2023-05-16T13:46:32;14.70;;;11.43;;
71106;SDS011;58763;47.982;11.516;2023-05-16T13:48:58;17.00;;;11.77;;
71106;SDS011;58763;47.982;11.516;2023-05-16T13:51:24;14.02;;;10.68;;
71106;SDS011;58763;47.982;11.516;2023-05-16T13:53:50;15.48;;;11.43;;
71106;SDS011;58763;47.982;11.516;2023-05-16T13:56:16;16.23;;;11.80;;
71106;SDS011;58763;47.982;11.516;2023-05-16T13:58:42;15.55;;;11.52;;
71106;SDS011;58763;47.982;11.516;2023-05-16T14:01:08;16.13;;;12.32;;
71106;SDS011;58763;47.982;11.516;2023-05-16T14:03:34;19.60;;;13.35;;
71106;SDS011;58763;47.982;11.516;2023-05-16T14:06:01;16.33;;;12.25;;
71106;SDS011;58763;47.982;11.516;2023-05-16T14:08:27;17.35;;;13.00;;
71106;SDS011;58763;47.982;11.516;2023-05-16T14:10:53;15.55;;;11.95;;
71106;SDS011;58763;47.982;11.516;2023-05-16T14:13:20;10.18;;;7.53;;
71106;SDS011;58763;47.982;11.516;2023-05-16T14:15:46;9.57;;;6.70;;
71106;SDS011;58763;47.982;11.516;2023-05-16T14:18:13;10.10;;;7.72;;
71106;SDS011;58763;47.982;11.516;2023-05-16T14:20:39;9.30;;;7.07;;
71106;SDS011;58763;47.982;11.516;2023-05-16T14:23:04;10.50;;;7.15;;
71106;SDS011;58763;47.982;11.516;2023-05-16T14:25:30;11.77;;;6.90;;
71106;SDS011;58763;47.982;11.516;2023-05-16T14:27:57;10.52;;;7.38;;
71106;SDS011;58763;47.982;11.516;2023-05-16T14:30:23;12.45;;;7.28;;
71106;SDS011;58763;47.982;11.516;2023-05-16T14:32:49;8.95;;;6.82;;
71106;SDS011;58763;47.982;11.516;2023-05-16T14:35:15;10.65;;;7.05;;
71106;SDS011;58763;47.982;11.516;2023-05-16T14:37:41;10.32;;;7.20;;
71106;SDS011;58763;47.982;11.516;2023-05-16T14:40:07;8.90;;;6.30;;
71106;SDS011;58763;47.982;11.516;2023-05-16T14:42:35;10.70;;;7.00;;